Hutchinson County Airport - Borger, Texas, United States - FAA: BGD - ICAO: KBGD - IATA: BGD

 
  Longest Runway: 6,300 feet   Approach Types:    Customs Landing Rights Airport: No   Port of Entry: No

Local Forecast

This Afternoon (7/30): Mostly sunny and hot, with a high near 98. South wind around 15 mph, with gusts as high as 25 mph.

Tonight (7/30): Partly cloudy, with a low around 72. South wind around 15 mph, with gusts as high as 20 mph.

Sunday (7/31): Sunny and hot, with a high near 98. South southwest wind 10 to 15 mph, with gusts as high as 20 mph.

Sunday Night (7/31): Mostly clear, with a low around 72. South wind around 15 mph, with gusts as high as 20 mph.

Monday (8/1): Sunny and hot, with a high near 100. South southwest wind 10 to 15 mph, with gusts as high as 20 mph.

Monday Night (8/1): Partly cloudy, with a low around 74. South wind 10 to 15 mph, with gusts as high as 20 mph.

Tuesday (8/2): Mostly sunny and hot, with a high near 99. South southwest wind 10 to 15 mph.



Current Weather (METAR)

2016/07/30 17:51 KBGD 301751Z AUTO 23009G20KT 10SM CLR 32/17 A3004 RMK AO2 SLP123 T03170167 10322 20194 58012

BORGER HUTCHINSON CO AIRPORT , TX, United States (KBGD) 35-42N 101-24W 927M Jul 30, 2016 - 01:51 PM EDT / 2016.07.30 1751 UTC Wind: from the SW (230 degrees) at 10 MPH (9 KT) gusting to 23 MPH (20 KT):0 Visibility: 10 mile(s):0 Sky conditions: clear Temperature: 89.1 F (31.7 C) Dew Point: 62.1 F (16.7 C) Relative Humidity: 40% Pressure (altimeter): 30.04 in. Hg (1017 hPa) Pressure tendency: 0.04 inches (1.2 hPa) lower than three hours ago ob: KBGD 301751Z AUTO 23009G20KT 10SM CLR 32/17 A3004 RMK AO2 SLP123 T03170167 10322 20194 58012 cycle: 18

Terminal Forecast (TAF)